createdAt,value
2023-04-23T00:02:19.679Z,99.90
2023-04-23T00:04:54.281Z,99.90
2023-04-23T00:07:23.339Z,99.90
2023-04-23T00:09:53.720Z,99.90
2023-04-23T00:12:22.736Z,99.90
2023-04-23T00:14:51.631Z,99.90
2023-04-23T00:17:21.029Z,99.90
2023-04-23T00:19:49.029Z,99.90
2023-04-23T00:22:18.328Z,99.90
2023-04-23T00:24:46.529Z,99.90
2023-04-23T00:27:14.960Z,99.90
2023-04-23T00:29:43.232Z,99.90
2023-04-23T00:32:11.910Z,99.90
2023-04-23T00:34:41.871Z,99.90
2023-04-23T00:37:10.376Z,99.90
2023-04-23T00:39:38.712Z,99.90
2023-04-23T00:42:12.620Z,99.90
2023-04-23T00:44:42.421Z,99.90
2023-04-23T00:47:12.167Z,99.90
2023-04-23T00:49:43.621Z,99.90
2023-04-23T00:52:11.600Z,99.90
2023-04-23T00:54:39.803Z,99.90
2023-04-23T00:57:09.068Z,99.90
2023-04-23T00:59:37.535Z,99.90
2023-04-23T01:02:06.340Z,99.90
2023-04-23T01:04:36.719Z,99.90
2023-04-23T01:07:07.760Z,99.90
2023-04-23T01:09:36.214Z,99.90
2023-04-23T01:12:06.921Z,99.90
2023-04-23T01:14:35.494Z,99.90
2023-04-23T01:17:04.190Z,99.90
2023-04-23T01:19:32.357Z,99.90
2023-04-23T01:22:02.542Z,99.90
2023-04-23T01:24:32.759Z,99.90
2023-04-23T01:27:01.820Z,99.90
2023-04-23T01:29:31.108Z,99.90
2023-04-23T01:32:00.669Z,99.90
2023-04-23T01:34:30.706Z,99.90
2023-04-23T01:37:00.781Z,99.90
2023-04-23T01:39:29.645Z,99.90
2023-04-23T01:42:00.320Z,99.90
2023-04-23T01:44:29.558Z,99.90
2023-04-23T01:46:58.575Z,99.90
2023-04-23T01:49:27.249Z,99.90
2023-04-23T01:51:55.667Z,99.90
2023-04-23T01:54:23.872Z,99.90
2023-04-23T01:56:54.674Z,99.90
2023-04-23T01:59:24.345Z,99.90
2023-04-23T02:01:53.345Z,99.90
2023-04-23T02:04:21.628Z,99.90
2023-04-23T02:06:53.088Z,99.90
2023-04-23T02:09:21.151Z,99.90
2023-04-23T02:11:49.424Z,99.90
2023-04-23T02:14:17.800Z,99.90
2023-04-23T02:16:47.431Z,99.90
2023-04-23T02:19:16.970Z,99.90
2023-04-23T02:21:45.298Z,99.90
2023-04-23T02:24:13.660Z,99.90
2023-04-23T02:26:42.094Z,99.90
2023-04-23T02:29:10.358Z,99.90
2023-04-23T02:31:38.639Z,99.90
2023-04-23T02:34:08.461Z,99.90
2023-04-23T02:36:36.665Z,99.90
2023-04-23T02:39:05.442Z,99.90
2023-04-23T02:41:33.484Z,99.90
2023-04-23T02:44:01.974Z,99.90
2023-04-23T02:46:31.656Z,99.90
2023-04-23T02:49:00.485Z,99.90
2023-04-23T02:51:30.330Z,99.90
2023-04-23T02:53:58.244Z,99.90
2023-04-23T02:56:26.802Z,99.90
2023-04-23T02:58:54.798Z,99.90
2023-04-23T03:01:22.901Z,99.90
2023-04-23T03:03:51.227Z,99.90
2023-04-23T03:06:20.451Z,99.90
2023-04-23T03:08:49.777Z,99.90
2023-04-23T03:11:17.742Z,99.90
2023-04-23T03:13:46.746Z,99.90
2023-04-23T03:16:14.922Z,99.90
2023-04-23T03:18:43.007Z,99.90
2023-04-23T03:21:11.469Z,99.90
2023-04-23T03:23:39.644Z,99.90
2023-04-23T03:26:09.799Z,99.90
2023-04-23T03:28:37.668Z,99.90
2023-04-23T03:31:07.025Z,99.90
2023-04-23T03:33:35.540Z,99.90
2023-04-23T03:36:04.165Z,99.90
2023-04-23T03:38:34.206Z,99.90
2023-04-23T03:41:04.556Z,99.90
2023-04-23T03:43:33.892Z,99.90
2023-04-23T03:46:06.701Z,99.90
2023-04-23T03:48:39.171Z,99.90
2023-04-23T03:51:12.693Z,99.90
2023-04-23T03:53:50.856Z,99.90
2023-04-23T03:56:31.312Z,99.90
2023-04-23T03:59:12.608Z,99.90
2023-04-23T04:01:41.500Z,99.90
2023-04-23T04:04:09.732Z,99.90
2023-04-23T04:06:38.377Z,99.90
2023-04-23T04:09:08.368Z,99.90
2023-04-23T04:11:36.866Z,99.90
2023-04-23T04:14:05.188Z,99.90
2023-04-23T04:16:34.593Z,99.90
2023-04-23T04:19:02.584Z,99.90
2023-04-23T04:21:32.344Z,99.90
2023-04-23T04:24:01.972Z,99.90
2023-04-23T04:26:32.668Z,99.90
2023-04-23T04:29:01.537Z,99.90
2023-04-23T04:31:31.012Z,99.90
2023-04-23T04:34:00.718Z,99.90
2023-04-23T04:36:29.578Z,99.90
2023-04-23T04:38:58.981Z,99.90
2023-04-23T04:41:27.683Z,99.90
2023-04-23T04:43:56.743Z,99.90
2023-04-23T04:46:26.269Z,99.90
2023-04-23T04:48:54.992Z,99.90
2023-04-23T04:51:24.411Z,99.90
2023-04-23T04:53:52.894Z,99.90
2023-04-23T04:56:24.600Z,99.90
2023-04-23T04:58:52.798Z,99.90
2023-04-23T05:01:23.138Z,99.90
2023-04-23T05:03:51.430Z,99.90
2023-04-23T05:06:20.013Z,99.90
2023-04-23T05:08:49.455Z,99.90
2023-04-23T05:11:20.152Z,99.90
2023-04-23T05:13:49.333Z,99.90
2023-04-23T05:16:17.678Z,99.90
2023-04-23T05:18:46.965Z,99.90
2023-04-23T05:21:16.128Z,99.90
2023-04-23T05:23:44.372Z,99.90
2023-04-23T05:26:13.746Z,99.90
2023-04-23T05:28:41.937Z,99.90
2023-04-23T05:31:10.415Z,99.90
2023-04-23T05:33:49.380Z,99.90
2023-04-23T05:36:18.477Z,99.90
2023-04-23T07:20:46.226Z,99.90
2023-04-23T07:23:14.818Z,99.90
2023-04-23T07:25:43.447Z,99.90
2023-04-23T07:28:11.718Z,99.90
2023-04-23T07:30:40.165Z,99.90
2023-04-23T07:33:08.353Z,99.90
2023-04-23T07:35:37.112Z,99.90
2023-04-23T07:38:06.961Z,99.90
2023-04-23T07:40:35.068Z,99.90
2023-04-23T07:43:03.483Z,99.90
2023-04-23T07:45:31.526Z,99.90
2023-04-23T07:47:59.652Z,99.90
2023-04-23T07:50:28.255Z,99.90
2023-04-23T07:52:56.344Z,99.90
2023-04-23T07:55:25.968Z,99.90
2023-04-23T07:57:53.969Z,99.90
2023-04-23T08:00:22.373Z,99.90
2023-04-23T08:02:51.718Z,99.90
2023-04-23T08:05:19.967Z,99.90
2023-04-23T08:07:48.424Z,99.90
2023-04-23T08:10:16.504Z,99.90
2023-04-23T08:12:46.272Z,99.90
2023-04-23T08:15:14.470Z,99.90
2023-04-23T08:17:45.112Z,99.90
2023-04-23T08:20:13.531Z,99.90
2023-04-23T08:22:41.544Z,99.90
2023-04-23T08:25:10.807Z,99.90
2023-04-23T08:27:38.771Z,99.90
2023-04-23T08:30:10.204Z,99.90
2023-04-23T08:32:40.185Z,99.90
2023-04-23T08:35:09.963Z,99.90
2023-04-23T08:37:39.001Z,99.90
2023-04-23T08:40:09.493Z,99.90
2023-04-23T08:42:43.839Z,99.90
2023-04-23T08:45:14.850Z,99.90
2023-04-23T08:47:44.342Z,99.90
2023-04-23T08:50:14.776Z,99.90
2023-04-23T08:52:48.463Z,99.90
2023-04-23T08:55:18.823Z,99.90
2023-04-23T08:57:48.328Z,99.90
2023-04-23T09:00:21.431Z,99.90
2023-04-23T09:02:50.814Z,99.90
2023-04-23T09:05:19.516Z,99.90
2023-04-23T09:07:47.496Z,99.90
2023-04-23T09:10:18.463Z,99.90
2023-04-23T09:12:47.986Z,99.90
2023-04-23T09:15:18.758Z,99.90
2023-04-23T09:17:48.647Z,99.90
2023-04-23T09:20:17.583Z,99.90
2023-04-23T09:22:48.994Z,99.90
2023-04-23T09:25:20.979Z,99.90
2023-04-23T09:27:51.393Z,99.90
2023-04-23T09:30:21.447Z,99.90
2023-04-23T09:32:50.408Z,99.90
2023-04-23T09:35:21.022Z,99.90
2023-04-23T09:37:53.249Z,99.90
2023-04-23T09:40:24.624Z,99.90
2023-04-23T09:42:54.460Z,99.90
2023-04-23T09:45:25.997Z,99.90
2023-04-23T09:47:56.546Z,99.90
2023-04-23T09:50:35.307Z,99.90
2023-04-23T09:53:04.072Z,99.90
2023-04-23T09:55:37.660Z,99.90
2023-04-23T09:58:06.910Z,99.90
2023-04-23T10:00:39.974Z,99.90
2023-04-23T10:03:09.695Z,99.90
2023-04-23T10:08:17.129Z,99.90
2023-04-23T10:11:02.356Z,99.90
2023-04-23T10:13:36.944Z,99.90
2023-04-23T10:16:20.763Z,99.90
2023-04-23T10:18:55.133Z,99.90
2023-04-23T10:21:32.108Z,99.90
2023-04-23T10:24:04.769Z,99.90
2023-04-23T10:26:34.565Z,99.90
2023-04-23T10:29:06.166Z,99.90
2023-04-23T10:31:37.925Z,99.90
2023-04-23T10:34:08.786Z,99.90
2023-04-23T10:36:38.487Z,99.90
2023-04-23T10:39:10.310Z,99.90
2023-04-23T10:41:41.329Z,99.90
2023-04-23T10:44:17.603Z,99.90
2023-04-23T10:46:56.740Z,99.90
2023-04-23T10:49:26.834Z,99.90
2023-04-23T10:54:34.963Z,99.90
2023-04-23T10:57:06.309Z,99.90
2023-04-23T10:59:36.813Z,99.90
2023-04-23T11:02:10.690Z,99.90
2023-04-23T11:04:47.012Z,99.90
2023-04-23T11:07:15.865Z,99.90
2023-04-23T11:09:47.706Z,99.90
2023-04-23T11:12:33.673Z,99.90
2023-04-23T11:15:13.263Z,99.90
2023-04-23T11:18:09.454Z,99.90
2023-04-23T11:20:38.061Z,99.90
2023-04-23T11:23:07.762Z,99.90
2023-04-23T11:25:42.475Z,99.90
2023-04-23T11:28:11.291Z,99.90
2023-04-23T11:30:39.901Z,99.90
2023-04-23T11:33:09.384Z,99.90
2023-04-23T11:35:40.726Z,99.90
2023-04-23T11:38:11.422Z,99.90
2023-04-23T11:40:40.554Z,99.90
2023-04-23T11:43:09.861Z,99.40
2023-04-23T11:45:38.103Z,99.40
2023-04-23T11:48:09.994Z,99.30
2023-04-23T11:50:38.988Z,99.60
2023-04-23T11:53:09.123Z,99.80
2023-04-23T11:55:38.096Z,99.80
2023-04-23T11:58:06.757Z,98.90
2023-04-23T12:00:34.768Z,98.40
2023-04-23T12:03:06.511Z,96.30
2023-04-23T12:05:40.409Z,96.10
2023-04-23T12:08:10.713Z,96.80
2023-04-23T12:10:47.717Z,97.20
2023-04-23T12:13:17.817Z,97.00
2023-04-23T12:15:48.418Z,97.20
2023-04-23T12:18:16.694Z,97.30
2023-04-23T12:20:46.800Z,97.60
2023-04-23T12:23:14.992Z,98.10
2023-04-23T12:25:43.224Z,98.30
2023-04-23T12:28:11.323Z,98.70
2023-04-23T12:30:46.075Z,99.20
2023-04-23T12:33:14.625Z,98.30
2023-04-23T12:35:46.530Z,98.20
2023-04-23T12:38:25.405Z,96.50
2023-04-23T12:40:54.049Z,95.60
2023-04-23T12:43:22.651Z,94.80
2023-04-23T12:45:51.993Z,93.80
2023-04-23T12:48:21.484Z,92.10
2023-04-23T12:50:50.913Z,90.00
2023-04-23T12:53:20.229Z,86.90
2023-04-23T12:55:50.510Z,84.30
2023-04-23T12:58:18.782Z,81.00
2023-04-23T13:00:47.223Z,77.50
2023-04-23T13:03:17.432Z,75.90
2023-04-23T13:05:45.606Z,72.40
2023-04-23T13:08:15.213Z,68.00
2023-04-23T13:10:44.838Z,67.60
2023-04-23T13:13:12.828Z,68.40
2023-04-23T13:15:41.023Z,69.50
2023-04-23T13:18:09.349Z,70.70
2023-04-23T13:20:37.563Z,71.10
2023-04-23T13:23:05.597Z,71.50
2023-04-23T13:25:35.225Z,71.20
2023-04-23T13:28:03.280Z,70.20
2023-04-23T13:30:31.556Z,68.20
2023-04-23T13:32:59.682Z,67.90
2023-04-23T13:35:27.935Z,68.10
2023-04-23T13:37:55.960Z,67.60
2023-04-23T13:40:23.919Z,68.90
2023-04-23T13:42:55.297Z,70.90
2023-04-23T13:45:23.370Z,71.60
2023-04-23T13:47:52.115Z,71.90
2023-04-23T13:50:20.812Z,71.80
2023-04-23T13:52:49.276Z,69.90
2023-04-23T13:55:17.397Z,69.10
2023-04-23T13:57:45.560Z,69.90
2023-04-23T14:00:16.484Z,71.60
2023-04-23T14:02:44.613Z,73.10
2023-04-23T14:05:12.645Z,72.70
2023-04-23T14:07:40.749Z,74.70
2023-04-23T14:10:09.934Z,76.30
2023-04-23T14:12:38.817Z,76.90
2023-04-23T14:15:08.449Z,76.90
2023-04-23T14:17:40.579Z,76.90
2023-04-23T14:20:09.797Z,76.40
2023-04-23T14:22:37.962Z,74.80
2023-04-23T14:25:11.241Z,75.70
2023-04-23T14:27:46.217Z,75.80
2023-04-23T14:30:17.987Z,76.00
2023-04-23T14:32:49.752Z,77.50
2023-04-23T14:35:21.273Z,78.60
2023-04-23T14:37:57.510Z,77.80
2023-04-23T14:40:25.499Z,77.10
2023-04-23T14:42:53.766Z,77.70
2023-04-23T14:45:23.565Z,77.20
2023-04-23T14:47:52.885Z,77.80
2023-04-23T14:50:21.664Z,77.50
2023-04-23T14:52:50.680Z,78.20
2023-04-23T14:55:19.631Z,78.20
2023-04-23T14:57:47.480Z,77.50
2023-04-23T15:00:17.540Z,78.50
2023-04-23T15:02:46.435Z,76.90
2023-04-23T15:05:16.677Z,76.00
2023-04-23T15:07:44.947Z,76.00
2023-04-23T15:10:16.199Z,75.60
2023-04-23T15:12:55.275Z,75.80
2023-04-23T15:15:43.598Z,76.40
2023-04-23T15:18:12.733Z,75.00
2023-04-23T15:20:42.722Z,75.00
2023-04-23T15:23:10.970Z,76.10
2023-04-23T15:25:39.701Z,76.70
2023-04-23T15:28:08.073Z,77.90
2023-04-23T15:30:36.096Z,76.60
2023-04-23T15:33:04.746Z,76.60
2023-04-23T15:35:32.858Z,77.60
2023-04-23T15:38:02.572Z,77.30
2023-04-23T15:40:31.179Z,78.50
2023-04-23T15:43:00.246Z,80.80
2023-04-23T15:45:29.045Z,80.70
2023-04-23T15:47:57.554Z,80.40
2023-04-23T15:50:27.021Z,80.80
2023-04-23T15:52:55.588Z,79.90
2023-04-23T15:55:25.254Z,81.00
2023-04-23T15:57:53.220Z,81.70
2023-04-23T16:00:21.859Z,83.40
2023-04-23T16:02:50.220Z,91.30
2023-04-23T16:05:19.267Z,93.60
2023-04-23T16:07:47.270Z,95.10
2023-04-23T16:10:15.262Z,96.10
2023-04-23T16:12:45.693Z,97.70
2023-04-23T16:15:14.515Z,98.80
2023-04-23T16:17:43.089Z,99.90
2023-04-23T16:20:13.023Z,99.90
2023-04-23T16:22:41.070Z,99.90
2023-04-23T16:25:10.545Z,99.90
2023-04-23T16:27:38.722Z,99.90
2023-04-23T16:30:09.968Z,99.90
2023-04-23T16:32:38.073Z,99.90
2023-04-23T16:35:07.780Z,99.90
2023-04-23T16:37:36.178Z,99.90
2023-04-23T16:40:05.801Z,99.90
2023-04-23T16:42:33.873Z,99.90
2023-04-23T16:45:03.217Z,99.90
2023-04-23T16:47:32.565Z,99.90
2023-04-23T16:50:00.644Z,99.90
2023-04-23T16:52:29.343Z,99.90
2023-04-23T16:54:57.318Z,99.90
2023-04-23T16:57:26.761Z,99.90
2023-04-23T16:59:55.037Z,99.90
2023-04-23T17:02:23.083Z,99.90
2023-04-23T17:04:52.964Z,99.90
2023-04-23T17:07:21.368Z,99.90
2023-04-23T17:09:49.390Z,99.90
2023-04-23T17:12:17.556Z,99.90
2023-04-23T17:14:45.512Z,99.90
2023-04-23T17:17:14.532Z,99.90
2023-04-23T17:19:42.533Z,99.90
2023-04-23T17:22:12.586Z,99.90
2023-04-23T17:24:41.174Z,99.90
2023-04-23T17:27:09.251Z,99.90
2023-04-23T17:29:37.208Z,99.90
2023-04-23T17:32:06.179Z,99.90
2023-04-23T17:34:35.423Z,99.90
2023-04-23T17:37:05.000Z,99.90
2023-04-23T17:39:34.325Z,99.90
2023-04-23T17:42:02.386Z,99.90
2023-04-23T17:44:30.727Z,99.90
2023-04-23T17:46:58.805Z,99.90
2023-04-23T17:52:16.065Z,99.90
2023-04-23T17:54:46.420Z,99.90
2023-04-23T17:57:14.379Z,99.90
2023-04-23T17:59:43.296Z,99.90
2023-04-23T18:02:11.839Z,99.90
2023-04-23T18:04:39.875Z,99.90
2023-04-23T18:07:08.510Z,99.90
2023-04-23T18:09:36.569Z,99.90
2023-04-23T18:12:07.950Z,99.90
2023-04-23T18:14:36.208Z,99.90
2023-04-23T18:17:05.128Z,99.90
2023-04-23T18:19:33.245Z,99.90
2023-04-23T18:22:03.218Z,99.90
2023-04-23T18:24:32.070Z,99.90
2023-04-23T18:27:00.019Z,99.90
2023-04-23T18:29:30.193Z,99.90
2023-04-23T18:31:58.272Z,99.90
2023-04-23T18:34:32.854Z,99.90
2023-04-23T18:37:09.756Z,99.90
2023-04-23T18:39:38.587Z,99.90
2023-04-23T18:42:07.111Z,99.90
2023-04-23T18:44:36.666Z,99.90
2023-04-23T18:47:06.235Z,99.90
2023-04-23T18:49:46.397Z,99.90
2023-04-23T18:52:15.455Z,99.90
2023-04-23T18:54:44.166Z,99.90
2023-04-23T18:57:12.186Z,99.90
2023-04-23T18:59:42.053Z,99.90
2023-04-23T19:02:14.613Z,99.90
2023-04-23T19:04:47.312Z,99.90
2023-04-23T19:07:16.258Z,99.90
2023-04-23T19:09:44.403Z,99.90
2023-04-23T19:12:13.008Z,99.90
2023-04-23T19:14:42.330Z,99.90
2023-04-23T19:17:11.006Z,99.90
2023-04-23T19:19:39.718Z,99.90
2023-04-23T19:22:08.027Z,99.90
2023-04-23T19:24:37.017Z,99.90
2023-04-23T19:27:05.450Z,99.90
2023-04-23T19:29:33.983Z,99.90
2023-04-23T19:32:03.288Z,99.90
2023-04-23T19:34:31.319Z,99.90
2023-04-23T19:36:59.346Z,99.90
2023-04-23T19:39:27.319Z,99.90
2023-04-23T19:41:55.332Z,99.90
2023-04-23T19:44:23.555Z,99.90
2023-04-23T19:46:51.539Z,99.90
2023-04-23T19:49:21.176Z,99.90
2023-04-23T19:51:50.849Z,99.90
2023-04-23T19:54:18.836Z,99.90
2023-04-23T19:56:46.826Z,99.90
2023-04-23T19:59:18.088Z,99.90
2023-04-23T20:01:47.017Z,99.90
2023-04-23T20:04:15.952Z,99.90
2023-04-23T20:06:45.446Z,99.90
2023-04-23T20:09:19.857Z,99.90
2023-04-23T20:11:48.446Z,99.90
2023-04-23T20:14:17.276Z,99.90
2023-04-23T20:16:46.514Z,99.90
2023-04-23T20:19:17.161Z,99.90
2023-04-23T20:21:47.001Z,99.90
2023-04-23T20:24:15.476Z,99.90
2023-04-23T20:26:43.942Z,99.90
2023-04-23T20:29:12.245Z,99.90
2023-04-23T20:31:40.550Z,99.90
2023-04-23T20:34:08.942Z,99.90
2023-04-23T20:36:38.846Z,99.90
2023-04-23T20:39:08.207Z,99.90
2023-04-23T20:41:36.754Z,99.90
2023-04-23T20:44:05.877Z,99.90
2023-04-23T20:46:34.231Z,99.90
2023-04-23T20:49:03.579Z,99.90
2023-04-23T20:51:33.960Z,99.90
2023-04-23T20:54:03.251Z,99.90
2023-04-23T20:56:32.702Z,99.90
2023-04-23T20:59:01.588Z,99.90
2023-04-23T21:01:29.748Z,99.90
2023-04-23T21:04:01.200Z,99.90
2023-04-23T21:06:31.172Z,99.90
2023-04-23T21:08:59.367Z,99.90
2023-04-23T21:11:27.739Z,99.90
2023-04-23T21:13:58.107Z,99.90
2023-04-23T21:16:27.996Z,99.90
2023-04-23T21:18:56.027Z,99.90
2023-04-23T21:21:28.086Z,99.90
2023-04-23T21:23:56.424Z,99.90
2023-04-23T21:26:25.224Z,99.90
2023-04-23T21:28:53.325Z,99.90
2023-04-23T21:31:39.223Z,99.90
2023-04-23T21:34:07.832Z,99.90
2023-04-23T21:41:15.193Z,99.90
2023-04-23T21:43:43.216Z,99.90
2023-04-23T21:46:11.285Z,99.90
2023-04-23T21:48:40.967Z,99.90
2023-04-23T21:51:11.497Z,99.90
2023-04-23T21:53:39.484Z,99.90
2023-04-23T21:56:07.823Z,99.90
2023-04-23T21:58:36.114Z,99.90
2023-04-23T22:01:04.360Z,99.90
2023-04-23T22:03:37.698Z,99.90
2023-04-23T22:06:10.272Z,99.90
2023-04-23T22:08:39.402Z,99.90
2023-04-23T22:11:09.775Z,99.90
2023-04-23T22:13:37.901Z,99.90
2023-04-23T22:16:20.412Z,99.90
2023-04-23T22:18:56.181Z,99.90
2023-04-23T22:21:26.073Z,99.90
2023-04-23T22:23:54.055Z,99.90
2023-04-23T22:26:22.815Z,99.90
2023-04-23T22:28:51.076Z,99.90
2023-04-23T22:31:19.374Z,99.90
2023-04-23T22:33:47.388Z,99.90
2023-04-23T22:36:17.227Z,99.90
2023-04-23T22:38:47.278Z,99.90
2023-04-23T22:41:15.442Z,99.90
2023-04-23T22:43:44.156Z,99.90
2023-04-23T22:46:12.280Z,99.90
2023-04-23T22:48:45.206Z,99.90
2023-04-23T22:51:13.276Z,99.90
2023-04-23T22:53:41.809Z,99.90
2023-04-23T22:56:11.418Z,99.90
2023-04-23T22:58:39.625Z,99.90
2023-04-23T23:01:08.002Z,99.90
2023-04-23T23:03:36.106Z,99.90
2023-04-23T23:06:04.394Z,99.90
2023-04-23T23:08:32.654Z,99.90
2023-04-23T23:11:01.161Z,99.90
2023-04-23T23:13:30.932Z,99.90
2023-04-23T23:16:02.224Z,99.90
2023-04-23T23:18:30.247Z,99.90
2023-04-23T23:20:58.565Z,99.90
2023-04-23T23:23:26.714Z,99.90
2023-04-23T23:25:54.906Z,99.90
2023-04-23T23:28:23.012Z,99.90
2023-04-23T23:30:53.991Z,99.90
2023-04-23T23:33:22.451Z,99.90
2023-04-23T23:35:51.043Z,99.90
2023-04-23T23:38:19.469Z,99.90
2023-04-23T23:40:48.290Z,99.90
2023-04-23T23:43:16.305Z,99.90
2023-04-23T23:45:44.614Z,99.90
2023-04-23T23:48:14.402Z,99.90
2023-04-23T23:50:42.434Z,99.90
2023-04-23T23:53:11.294Z,99.90
2023-04-23T23:55:40.965Z,99.90
2023-04-23T23:58:09.316Z,99.90
